Time;durP1;ratioP1;P1;durP2;ratioP2;P2;SDS_P1;SDS_P2;PMS_P1;PMS_P2;Temp;Humidity;BMP_temperature;BMP_pressure;BME280_temperature;BME280_humidity;BME280_pressure;Samples;Min_cycle;Max_cycle;Signal;HPM_P1;HPM_P2
2021/12/20 00:01:49;;;;;;;30.73;14.52;;;;;;;0.84;92.85;96886.75;5070281;28;20055;-74
2021/12/20 00:04:15;;;;;;;33.28;14.60;;;;;;;0.83;92.84;96888.59;5069637;28;20055;-74
2021/12/20 00:06:42;;;;;;;26.88;13.38;;;;;;;0.86;92.78;96887.31;5069832;28;20044;-74
2021/12/20 00:09:10;;;;;;;32.53;15.32;;;;;;;0.89;93.09;96884.97;5069172;28;20056;-74
2021/12/20 00:11:36;;;;;;;31.08;14.68;;;;;;;0.93;92.70;96886.06;5069761;28;20071;-74
2021/12/20 00:14:03;;;;;;;34.88;15.35;;;;;;;0.96;92.61;96890.16;5069421;28;20056;-74
2021/12/20 00:16:30;;;;;;;28.83;13.25;;;;;;;1.00;92.46;96886.75;5070046;28;20858;-74
2021/12/20 00:18:56;;;;;;;31.70;14.18;;;;;;;1.05;92.18;96883.34;5069817;28;20044;-74
2021/12/20 00:21:23;;;;;;;29.02;13.30;;;;;;;1.04;92.12;96890.56;5067421;28;20075;-74
2021/12/20 00:23:49;;;;;;;28.08;13.00;;;;;;;1.03;92.02;96880.06;5069753;28;20052;-74
2021/12/20 00:26:17;;;;;;;25.90;13.10;;;;;;;1.05;91.93;96883.34;5069145;28;20131;-74
2021/12/20 00:28:43;;;;;;;27.55;12.60;;;;;;;1.03;91.93;96886.22;5069389;28;20048;-74
2021/12/20 00:31:10;;;;;;;30.48;12.88;;;;;;;0.99;91.83;96874.41;5069005;28;20048;-74
2021/12/20 00:33:37;;;;;;;29.50;13.30;;;;;;;1.01;92.06;96876.81;5069565;28;20052;-74
2021/12/20 00:36:06;;;;;;;25.92;12.85;;;;;;;1.02;91.94;96868.53;5068654;28;20080;-74
2021/12/20 00:41:18;;;;;;;28.08;13.02;;;;;;;1.00;92.00;96875.19;5069026;28;20537;-74
2021/12/20 00:43:45;;;;;;;29.60;14.35;;;;;;;1.02;91.83;96873.09;5069488;28;20056;-74
2021/12/20 00:46:12;;;;;;;29.65;13.98;;;;;;;1.04;91.66;96871.78;5068850;28;20054;-74
2021/12/20 00:48:39;;;;;;;26.65;12.98;;;;;;;1.08;91.57;96869.41;5068936;28;20052;-75
2021/12/20 00:51:05;;;;;;;31.08;14.13;;;;;;;1.01;91.78;96866.09;5066918;28;20110;-74
2021/12/20 00:53:32;;;;;;;28.38;14.00;;;;;;;1.02;91.75;96873.88;5068663;28;20052;-74
2021/12/20 00:55:58;;;;;;;27.80;12.98;;;;;;;1.02;91.92;96870.41;5068961;28;20087;-74
2021/12/20 00:58:27;;;;;;;30.55;14.60;;;;;;;1.03;91.88;96869.34;5068349;28;20049;-74
2021/12/20 01:00:55;;;;;;;29.38;13.35;;;;;;;1.00;91.89;96872.53;5068946;28;20076;-74
2021/12/20 01:03:22;;;;;;;27.02;12.98;;;;;;;1.00;91.94;96864.47;5068425;28;20048;-74
2021/12/20 01:05:49;;;;;;;27.50;12.80;;;;;;;0.97;92.06;96870.31;5068847;28;20052;-74
2021/12/20 01:08:17;;;;;;;29.67;13.48;;;;;;;0.99;92.02;96862.81;5067939;28;20052;-74
2021/12/20 01:10:49;;;;;;;29.30;13.57;;;;;;;0.97;92.09;96865.75;5068752;28;20053;-74
2021/12/20 01:13:18;;;;;;;30.60;14.48;;;;;;;0.97;92.12;96862.28;5067927;28;20135;-74
2021/12/20 01:15:49;;;;;;;28.95;13.07;;;;;;;0.94;92.21;96860.91;5068936;28;20052;-74
2021/12/20 01:18:17;;;;;;;31.33;13.10;;;;;;;0.90;92.31;96864.31;5067616;28;20110;-74
2021/12/20 01:20:44;;;;;;;32.97;13.45;;;;;;;0.88;92.52;96871.78;5066752;28;20052;-74
2021/12/20 01:23:11;;;;;;;31.98;13.45;;;;;;;0.90;92.76;96875.03;5067896;28;20048;-74
2021/12/20 01:25:37;;;;;;;30.67;14.43;;;;;;;0.91;92.62;96871.28;5068790;28;20561;-74
2021/12/20 01:28:05;;;;;;;32.47;13.57;;;;;;;0.95;92.88;96878.63;5067678;28;20857;-74
2021/12/20 01:30:32;;;;;;;30.48;13.65;;;;;;;0.93;92.57;96863.81;5068646;28;20045;-74
2021/12/20 01:33:00;;;;;;;31.77;13.55;;;;;;;0.93;92.67;96869.16;5067891;28;20049;-74
2021/12/20 01:35:28;;;;;;;27.27;13.43;;;;;;;0.95;92.66;96864.41;5067845;28;20121;-74
2021/12/20 01:37:57;;;;;;;32.47;13.57;;;;;;;1.00;92.52;96869.84;5068243;28;20063;-74
2021/12/20 01:40:24;;;;;;;33.92;13.40;;;;;;;1.04;92.34;96870.97;5067861;28;20055;-74
2021/12/20 01:42:55;;;;;;;32.15;13.85;;;;;;;1.06;92.28;96874.22;5068470;28;20056;-74
2021/12/20 01:45:23;;;;;;;29.77;13.82;;;;;;;1.07;92.16;96875.84;5067889;28;20052;-74
2021/12/20 01:48:00;;;;;;;30.83;13.45;;;;;;;1.05;91.84;96867.25;5067615;28;20076;-74
2021/12/20 01:50:41;;;;;;;33.42;13.40;;;;;;;1.02;92.23;96878.44;5075883;28;20123;-76
2021/12/20 01:53:08;;;;;;;31.17;13.73;;;;;;;1.00;92.31;96881.38;5087677;28;20059;-74
2021/12/20 01:55:34;;;;;;;29.48;13.98;;;;;;;0.97;92.53;96870.31;5088503;28;20044;-74
2021/12/20 01:58:01;;;;;;;31.40;13.77;;;;;;;0.92;92.58;96875.59;5087950;28;20039;-74
2021/12/20 02:00:30;;;;;;;31.70;13.52;;;;;;;0.91;92.45;96873.97;5088233;28;20052;-74
2021/12/20 02:03:00;;;;;;;32.10;14.68;;;;;;;0.91;92.74;96873.97;5087491;28;20499;-74
2021/12/20 02:05:46;;;;;;;33.67;14.15;;;;;;;0.92;92.91;96856.81;5087536;28;20052;-74
2021/12/20 02:08:18;;;;;;;35.20;14.38;;;;;;;0.96;92.86;96869.50;5087384;28;20040;-74
2021/12/20 02:10:45;;;;;;;32.92;14.00;;;;;;;0.96;92.84;96874.06;5087970;28;20048;-74
2021/12/20 02:13:12;;;;;;;31.73;13.43;;;;;;;0.97;92.82;96867.63;5087362;28;20077;-74
2021/12/20 02:15:39;;;;;;;32.15;14.43;;;;;;;0.99;92.72;96871.72;5088134;28;20052;-74
2021/12/20 02:18:06;;;;;;;31.95;13.77;;;;;;;1.00;92.75;96859.94;5087106;28;20060;-74
2021/12/20 02:20:35;;;;;;;30.13;13.25;;;;;;;1.02;92.64;96859.66;5073169;28;20056;-74
2021/12/20 02:23:04;;;;;;;32.40;14.50;;;;;;;1.00;92.73;96849.19;5067039;28;20404;-75
2021/12/20 02:25:32;;;;;;;35.17;14.20;;;;;;;0.98;92.69;96850.47;5067285;28;20048;-74
2021/12/20 02:28:05;;;;;;;35.78;15.15;;;;;;;0.97;92.86;96844.31;5067517;28;20102;-74
2021/12/20 02:30:47;;;;;;;32.35;13.88;;;;;;;0.97;92.73;96851.53;5067599;28;20131;-74
2021/12/20 02:38:45;;;;;;;34.50;14.70;;;;;;;0.94;93.03;96852.03;5067400;28;20047;-74
2021/12/20 02:41:14;;;;;;;31.08;14.25;;;;;;;0.93;92.88;96851.22;5066362;28;20044;-74
2021/12/20 02:43:43;;;;;;;30.90;13.65;;;;;;;0.94;93.11;96849.34;5067615;28;20055;-74
2021/12/20 02:46:26;;;;;;;31.75;14.77;;;;;;;0.99;92.95;96854.78;5066766;28;20051;-74
2021/12/20 02:48:53;;;;;;;;;;;;;;;1.03;92.61;96839.84;5067924;28;20051;-75
2021/12/20 02:51:23;;;;;;;33.17;14.05;;;;;;;1.04;92.51;96844.13;5064951;28;20395;-74
2021/12/20 02:53:51;;;;;;;34.85;14.77;;;;;;;1.04;92.73;96844.97;5067485;28;20044;-74
2021/12/20 02:56:18;;;;;;;35.47;14.43;;;;;;;1.02;92.70;96840.91;5066738;28;20072;-74
2021/12/20 02:58:44;;;;;;;32.58;14.60;;;;;;;1.08;92.67;96849.81;5066959;28;20063;-74
2021/12/20 03:01:11;;;;;;;32.13;14.65;;;;;;;1.15;92.69;96858.50;5067005;28;20049;-74
2021/12/20 03:03:38;;;;;;;35.30;14.85;;;;;;;1.15;92.35;96851.31;5067271;28;20052;-74
2021/12/20 03:06:09;;;;;;;33.67;14.45;;;;;;;1.15;92.28;96851.31;5066635;28;20435;-74
2021/12/20 03:08:38;;;;;;;37.90;15.48;;;;;;;1.18;91.92;96852.66;5066987;28;20057;-74
2021/12/20 03:11:05;;;;;;;32.25;14.90;;;;;;;1.21;92.16;96852.19;5066698;28;20415;-74
2021/12/20 03:13:32;;;;;;;30.23;13.57;;;;;;;1.21;91.91;96839.59;5067089;28;20067;-74
2021/12/20 03:15:58;;;;;;;36.00;15.20;;;;;;;1.27;91.93;96848.50;5069249;28;20126;-74
2021/12/20 03:18:25;;;;;;;36.53;14.63;;;;;;;1.30;91.60;96848.00;5070387;28;20067;-74
2021/12/20 03:20:51;;;;;;;32.35;13.80;;;;;;;1.32;91.47;96845.09;5069246;28;20056;-75
2021/12/20 03:23:18;;;;;;;31.75;14.25;;;;;;;1.27;91.54;96837.78;5070207;28;20059;-74
2021/12/20 03:25:45;;;;;;;33.83;14.68;;;;;;;1.33;91.36;96841.34;5070988;28;20056;-74
2021/12/20 03:28:12;;;;;;;29.35;14.90;;;;;;;1.33;91.28;96847.53;5069725;28;20106;-74
2021/12/20 03:30:39;;;;;;;36.55;14.93;;;;;;;1.31;91.15;96838.91;5071040;28;20055;-74
2021/12/20 03:33:05;;;;;;;34.60;14.93;;;;;;;1.31;91.45;96833.56;5069848;28;20044;-74
2021/12/20 03:35:32;;;;;;;34.30;14.98;;;;;;;1.30;91.43;96843.47;5070949;28;20056;-74
2021/12/20 03:37:58;;;;;;;35.35;14.77;;;;;;;1.29;91.24;96836.47;5070458;28;20056;-74
2021/12/20 03:40:25;;;;;;;32.25;13.82;;;;;;;1.25;91.50;96838.03;5067566;28;20051;-74
2021/12/20 03:42:53;;;;;;;32.90;14.13;;;;;;;1.23;91.64;96845.50;5070031;28;20059;-74
2021/12/20 03:45:20;;;;;;;34.15;14.75;;;;;;;1.22;91.89;96838.53;5069878;28;20063;-75
2021/12/20 03:47:46;;;;;;;33.55;15.13;;;;;;;1.28;91.91;96842.09;5069869;28;20051;-74
2021/12/20 03:50:14;;;;;;;32.47;13.90;;;;;;;1.23;91.45;96836.66;5069666;28;20067;-75
2021/12/20 03:52:41;;;;;;;34.40;14.50;;;;;;;1.23;91.78;96837.47;5070205;28;20102;-74
2021/12/20 03:55:09;;;;;;;37.38;15.52;;;;;;;1.22;91.53;96843.88;5070127;28;20582;-74
2021/12/20 03:57:36;;;;;;;35.05;15.00;;;;;;;1.18;91.93;96837.38;5070106;28;20052;-74
2021/12/20 04:00:06;;;;;;;32.10;14.88;;;;;;;1.20;92.05;96848.69;5069762;28;20668;-74
2021/12/20 04:02:38;;;;;;;40.40;16.75;;;;;;;1.18;91.98;96850.78;5069841;28;20056;-74
2021/12/20 04:05:05;;;;;;;33.88;14.75;;;;;;;1.19;91.94;96839.00;5069658;28;20059;-75
2021/12/20 04:07:32;;;;;;;36.15;14.63;;;;;;;1.16;92.16;96842.19;5069874;28;20605;-74
2021/12/20 04:09:58;;;;;;;35.33;14.98;;;;;;;1.20;92.14;96848.69;5066968;28;20396;-74
2021/12/20 04:12:24;;;;;;;33.90;14.70;;;;;;;1.22;92.21;96841.19;5069370;28;20057;-75
2021/12/20 04:14:51;;;;;;;35.58;15.15;;;;;;;1.25;92.19;96846.09;5070163;28;20048;-74
2021/12/20 04:17:19;;;;;;;33.13;14.77;;;;;;;1.24;92.06;96857.84;5069095;28;20058;-74
2021/12/20 04:19:45;;;;;;;41.95;15.73;;;;;;;1.23;92.00;96847.38;5069976;28;20519;-74
2021/12/20 04:22:14;;;;;;;37.22;15.07;;;;;;;1.27;92.07;96852.00;5069042;28;20458;-74
2021/12/20 04:24:41;;;;;;;36.00;14.85;;;;;;;1.33;91.85;96852.09;5069961;28;20040;-74
2021/12/20 04:27:07;;;;;;;33.88;14.63;;;;;;;1.38;91.72;96862.88;5067893;28;20063;-74
2021/12/20 04:29:34;;;;;;;34.15;15.35;;;;;;;1.40;91.15;96852.72;5070166;28;20045;-74
2021/12/20 04:32:01;;;;;;;36.33;15.10;;;;;;;1.45;91.41;96855.47;5069260;28;20044;-75
2021/12/20 04:34:29;;;;;;;33.00;13.85;;;;;;;1.46;90.99;96851.72;5069405;28;20045;-74
2021/12/20 04:36:55;;;;;;;32.55;13.95;;;;;;;1.42;90.57;96866.72;5069376;28;20049;-74
2021/12/20 04:39:26;;;;;;;33.35;14.32;;;;;;;1.46;91.18;96878.56;5067890;28;20052;-74
2021/12/20 04:41:52;;;;;;;33.65;14.65;;;;;;;1.48;90.68;96887.19;5068238;28;20488;-74
2021/12/20 04:44:19;;;;;;;36.97;15.15;;;;;;;1.52;91.05;96885.63;5069066;28;20075;-74
2021/12/20 04:46:45;;;;;;;33.60;14.38;;;;;;;1.56;90.88;96876.81;5069347;28;20060;-76
2021/12/20 04:49:12;;;;;;;35.95;14.30;;;;;;;1.54;90.21;96878.94;5068626;28;20048;-74
2021/12/20 04:51:40;;;;;;;32.00;14.38;;;;;;;1.53;90.44;96884.56;5069308;28;20052;-74
2021/12/20 04:54:06;;;;;;;32.30;14.32;;;;;;;1.46;90.50;96889.28;5068597;28;20570;-74
2021/12/20 04:56:33;;;;;;;37.35;15.02;;;;;;;1.41;90.83;96900.78;5069296;28;20053;-74
2021/12/20 04:58:59;;;;;;;32.45;14.10;;;;;;;1.41;90.82;96886.53;5068789;28;20101;-74
2021/12/20 05:01:26;;;;;;;34.55;14.25;;;;;;;1.38;90.80;96881.66;5068596;28;20049;-74
2021/12/20 05:03:52;;;;;;;35.45;14.65;;;;;;;1.35;91.22;96884.84;5069018;28;20041;-74
2021/12/20 05:06:18;;;;;;;35.15;14.88;;;;;;;1.33;91.46;96878.91;5068394;28;20049;-74
2021/12/20 05:08:50;;;;;;;37.55;15.32;;;;;;;1.34;91.36;96885.91;5068585;28;20052;-74
2021/12/20 05:11:17;;;;;;;32.28;14.52;;;;;;;1.34;91.38;96888.59;5065386;28;20044;-74
2021/12/20 05:13:44;;;;;;;35.00;14.63;;;;;;;1.34;91.10;96875.16;5068514;28;20495;-74
2021/12/20 05:16:10;;;;;;;33.97;14.27;;;;;;;1.33;91.34;96884.28;5068378;28;20056;-74
2021/12/20 05:18:37;;;;;;;36.50;15.02;;;;;;;1.30;91.51;96881.03;5068418;28;20052;-74
2021/12/20 05:21:03;;;;;;;36.00;14.25;;;;;;;1.32;91.55;96874.63;5068132;28;20063;-74
2021/12/20 05:23:30;;;;;;;37.75;15.40;;;;;;;1.27;91.67;96878.84;5068435;28;20044;-74
2021/12/20 05:25:58;;;;;;;34.08;15.18;;;;;;;1.29;91.90;96878.59;5068783;28;20094;-74
2021/12/20 05:28:24;;;;;;;39.45;15.13;;;;;;;1.30;91.76;96891.78;5067594;28;20044;-74
2021/12/20 05:30:52;;;;;;;34.38;14.50;;;;;;;1.29;91.42;96890.13;5068579;28;20844;-74
2021/12/20 05:33:19;;;;;;;33.42;14.00;;;;;;;1.29;91.64;96889.31;5067575;28;20059;-74
2021/12/20 05:35:45;;;;;;;37.03;14.98;;;;;;;1.35;91.71;96887.50;5068617;28;20044;-74
2021/12/20 05:38:12;;;;;;;38.67;15.55;;;;;;;1.42;91.54;96896.22;5067311;28;20073;-74
2021/12/20 05:40:39;;;;;;;35.58;15.45;;;;;;;1.47;91.02;96898.97;5064802;28;20045;-75
2021/12/20 05:43:07;;;;;;;36.65;14.98;;;;;;;1.53;91.01;96901.50;5067421;28;20048;-76
2021/12/20 05:45:34;;;;;;;31.25;13.95;;;;;;;1.58;90.64;96892.69;5068251;28;20041;-74
2021/12/20 05:48:00;;;;;;;34.92;14.75;;;;;;;1.62;90.53;96899.22;5067767;28;20077;-74
2021/12/20 05:50:27;;;;;;;32.85;14.23;;;;;;;1.66;90.19;96894.94;5067890;28;20055;-74
2021/12/20 05:52:53;;;;;;;33.80;14.32;;;;;;;1.73;90.30;96902.84;5067829;28;20431;-74
2021/12/20 05:55:20;;;;;;;34.25;13.68;;;;;;;1.78;89.63;96908.28;5067859;28;20690;-74
2021/12/20 05:57:47;;;;;;;32.83;14.55;;;;;;;1.78;89.27;96906.41;5067454;28;20127;-74
2021/12/20 06:00:18;;;;;;;33.58;14.57;;;;;;;1.82;89.08;96912.88;5067576;28;20048;-74
2021/12/20 06:02:47;;;;;;;39.08;14.40;;;;;;;1.88;89.28;96923.69;5067822;28;20048;-74
2021/12/20 06:05:14;;;;;;;33.47;14.93;;;;;;;1.91;88.90;96921.31;5067594;28;20496;-74
2021/12/20 06:07:42;;;;;;;37.40;14.27;;;;;;;1.93;88.88;96916.53;5067454;28;20070;-74
2021/12/20 06:10:11;;;;;;;31.88;13.40;;;;;;;1.91;88.37;96918.63;5064014;28;20076;-74
2021/12/20 06:12:39;;;;;;;32.38;13.88;;;;;;;1.91;88.65;96921.31;5067330;28;20419;-74
2021/12/20 06:15:06;;;;;;;32.85;14.65;;;;;;;1.87;88.61;96920.19;5067421;28;20870;-75
2021/12/20 06:17:34;;;;;;;29.63;14.27;;;;;;;1.87;88.80;96928.25;5067411;28;20060;-75
2021/12/20 06:20:01;;;;;;;35.25;14.80;;;;;;;1.89;88.99;96931.50;5067333;28;20052;-75
2021/12/20 06:22:27;;;;;;;33.17;14.27;;;;;;;1.86;88.65;96915.88;5067300;28;20052;-75
2021/12/20 06:24:54;;;;;;;31.45;14.15;;;;;;;1.82;88.79;96926.31;5067715;28;20045;-75
2021/12/20 06:27:20;;;;;;;34.05;15.00;;;;;;;1.79;88.82;96926.00;5066559;28;20059;-75
2021/12/20 06:29:47;;;;;;;36.38;14.90;;;;;;;1.72;89.15;96923.50;5067316;28;20041;-75
2021/12/20 06:32:13;;;;;;;34.95;14.50;;;;;;;1.71;89.39;96927.22;5066546;28;20041;-75
2021/12/20 06:34:41;;;;;;;33.20;14.27;;;;;;;1.70;89.51;96927.47;5067351;28;20045;-75
2021/12/20 06:37:08;;;;;;;32.78;14.48;;;;;;;1.72;89.67;96931.56;5066022;28;20045;-75
2021/12/20 06:39:34;;;;;;;33.35;14.45;;;;;;;1.75;89.70;96928.38;5064449;28;20052;-74
2021/12/20 06:42:01;;;;;;;32.15;13.68;;;;;;;1.77;89.47;96928.91;5086155;28;20036;-75
2021/12/20 06:44:27;;;;;;;32.83;14.35;;;;;;;1.82;89.47;96934.34;5087230;28;20043;-75
2021/12/20 06:46:55;;;;;;;36.33;14.55;;;;;;;1.83;89.15;96952.13;5087225;28;20051;-75
2021/12/20 06:49:25;;;;;;;38.22;15.30;;;;;;;1.90;89.22;96951.13;5086454;28;20055;-75
2021/12/20 06:51:55;;;;;;;39.05;15.27;;;;;;;1.94;88.65;96960.31;5091507;28;20060;-75
2021/12/20 06:54:22;;;;;;;36.65;14.88;;;;;;;1.93;88.71;96958.66;5091239;28;20163;-75
2021/12/20 06:56:49;;;;;;;35.95;14.50;;;;;;;1.94;88.77;96949.56;5090137;28;20074;-75
2021/12/20 06:59:15;;;;;;;35.42;15.38;;;;;;;1.99;88.61;96946.97;5089890;28;20059;-75
2021/12/20 07:01:42;;;;;;;32.88;14.85;;;;;;;2.03;88.65;96943.50;5090810;28;20064;-75
2021/12/20 07:04:09;;;;;;;33.45;14.75;;;;;;;2.06;88.43;96955.63;5090790;28;20466;-75
2021/12/20 07:06:36;;;;;;;34.72;15.32;;;;;;;2.11;88.36;96949.53;5090966;28;20054;-76
2021/12/20 07:09:03;;;;;;;37.15;15.30;;;;;;;2.11;87.88;96949.53;5089009;28;20515;-75
2021/12/20 07:11:30;;;;;;;35.40;14.10;;;;;;;2.12;87.84;96951.94;5068311;28;20415;-75
2021/12/20 07:13:57;;;;;;;36.45;13.93;;;;;;;2.13;87.85;96958.94;5070038;28;20053;-75
2021/12/20 07:16:23;;;;;;;33.65;13.38;;;;;;;2.21;87.80;96955.84;5070911;28;20515;-75
2021/12/20 07:18:50;;;;;;;36.50;14.02;;;;;;;2.17;87.07;96949.31;5070522;28;20075;-75
2021/12/20 07:21:17;;;;;;;35.47;14.55;;;;;;;2.21;87.53;96952.34;5070690;28;20053;-75
2021/12/20 07:23:44;;;;;;;29.35;13.23;;;;;;;2.29;87.68;96958.06;5070916;28;20040;-75
2021/12/20 07:26:13;;;;;;;32.95;13.57;;;;;;;2.28;87.43;96961.81;5070512;28;20407;-75
2021/12/20 07:28:40;;;;;;;38.67;15.90;;;;;;;2.30;87.23;96956.22;5070679;28;20055;-75
2021/12/20 07:31:07;;;;;;;32.78;14.43;;;;;;;2.30;86.88;96961.59;5070524;28;20064;-75
2021/12/20 07:33:33;;;;;;;29.77;13.48;;;;;;;2.32;86.85;96957.56;5070663;28;20044;-75
2021/12/20 07:35:59;;;;;;;30.27;14.18;;;;;;;2.29;86.92;96958.06;5070788;28;20040;-75
2021/12/20 07:38:26;;;;;;;31.77;13.93;;;;;;;2.30;86.67;96964.28;5069482;28;20050;-75
2021/12/20 07:40:54;;;;;;;29.77;14.00;;;;;;;2.30;86.73;96965.09;5067839;28;20044;-75
2021/12/20 07:43:22;;;;;;;31.50;13.35;;;;;;;2.26;86.94;96958.59;5069854;28;20037;-75
2021/12/20 07:45:48;;;;;;;28.58;13.18;;;;;;;2.28;87.13;96966.38;5070706;28;20044;-76
2021/12/20 07:48:16;;;;;;;32.22;14.73;;;;;;;2.23;86.98;96974.38;5069706;28;20052;-76
2021/12/20 07:50:42;;;;;;;32.45;14.57;;;;;;;2.19;87.22;96968.69;5070498;28;20454;-75
2021/12/20 07:53:09;;;;;;;30.80;14.32;;;;;;;2.15;87.46;96962.22;5069556;28;20411;-75
2021/12/20 07:55:36;;;;;;;29.17;12.70;;;;;;;2.12;87.74;96968.06;5070585;28;20056;-75
2021/12/20 07:58:03;;;;;;;31.40;13.75;;;;;;;2.11;87.98;96960.28;5069172;28;20045;-75
2021/12/20 08:00:31;;;;;;;30.85;13.80;;;;;;;2.12;88.36;96956.50;5070062;28;20462;-75
2021/12/20 08:02:57;;;;;;;33.15;14.98;;;;;;;2.17;88.40;96965.44;5070084;28;20044;-75
2021/12/20 08:05:25;;;;;;;32.97;14.60;;;;;;;2.19;88.10;96968.69;5069920;28;20101;-75
2021/12/20 08:07:52;;;;;;;33.08;14.30;;;;;;;2.24;88.37;96966.06;5069929;28;20537;-75
2021/12/20 08:10:19;;;;;;;33.60;14.25;;;;;;;2.28;87.70;96961.81;5066538;28;20435;-75
2021/12/20 08:12:46;;;;;;;32.28;13.77;;;;;;;2.33;87.21;96975.31;5070081;28;20499;-75
2021/12/20 08:15:13;;;;;;;32.47;14.38;;;;;;;2.30;87.04;96969.66;5069516;28;20075;-75
2021/12/20 08:17:41;;;;;;;33.97;14.93;;;;;;;2.31;87.14;96966.72;5069853;28;20403;-75
2021/12/20 08:20:10;;;;;;;33.10;13.48;;;;;;;2.29;87.22;96968.81;5068972;28;20052;-76
2021/12/20 08:22:37;;;;;;;33.83;13.13;;;;;;;2.25;87.36;96973.09;5069932;28;20074;-75
2021/12/20 08:25:04;;;;;;;32.28;13.55;;;;;;;2.20;87.36;96977.59;5069306;28;20056;-75
2021/12/20 08:27:31;;;;;;;34.22;14.02;;;;;;;2.20;87.70;96975.72;5069461;28;20063;-75
2021/12/20 08:29:58;;;;;;;34.58;14.45;;;;;;;2.22;88.28;96978.13;5069694;28;20048;-75
2021/12/20 08:32:25;;;;;;;34.33;14.00;;;;;;;2.24;87.93;96976.81;5068764;28;20079;-75
2021/12/20 08:34:53;;;;;;;33.65;13.85;;;;;;;2.28;87.79;96983.31;5069892;28;20049;-75
2021/12/20 08:37:20;;;;;;;32.63;14.35;;;;;;;2.30;88.18;96983.91;5068759;28;20135;-75
2021/12/20 08:39:46;;;;;;;35.20;14.93;;;;;;;2.31;87.85;96982.03;5066513;28;20514;-75
2021/12/20 08:42:13;;;;;;;37.65;15.27;;;;;;;2.32;88.06;96979.09;5068848;28;20115;-75
2021/12/20 08:44:40;;;;;;;34.67;14.00;;;;;;;2.38;88.09;96987.22;5069607;28;20052;-75
2021/12/20 08:47:06;;;;;;;31.75;13.85;;;;;;;2.38;87.72;96981.81;5068704;28;20057;-75
2021/12/20 08:49:33;;;;;;;34.55;15.45;;;;;;;2.45;87.77;96982.44;5069472;28;20066;-76
2021/12/20 08:52:01;;;;;;;34.17;15.27;;;;;;;2.54;88.05;96986.31;5069245;28;20466;-75
2021/12/20 08:54:29;;;;;;;38.30;15.27;;;;;;;2.59;87.22;96989.06;5069046;28;20044;-76
2021/12/20 08:56:55;;;;;;;36.72;16.05;;;;;;;2.61;87.30;96992.34;5069021;28;20454;-75
2021/12/20 08:59:22;;;;;;;36.35;15.93;;;;;;;2.64;86.95;96991.00;5068461;28;20462;-75
2021/12/20 09:01:49;;;;;;;33.47;15.15;;;;;;;2.60;86.92;96996.06;5069277;28;20048;-75
2021/12/20 09:04:16;;;;;;;36.88;15.93;;;;;;;2.61;86.99;96995.03;5068696;28;20048;-75
2021/12/20 09:06:43;;;;;;;32.58;14.73;;;;;;;2.56;86.87;96989.59;5068815;28;20048;-75
2021/12/20 09:09:13;;;;;;;41.30;15.85;;;;;;;2.56;87.15;96997.66;5067742;28;20048;-75
2021/12/20 09:11:41;;;;;;;36.15;15.02;;;;;;;2.63;87.39;97006.34;5065940;28;20055;-75
2021/12/20 09:14:08;;;;;;;36.90;15.55;;;;;;;2.65;87.27;97004.19;5067616;28;20053;-76
2021/12/20 09:16:34;;;;;;;34.25;14.82;;;;;;;2.65;86.58;97003.38;5068842;28;20397;-75
2021/12/20 09:19:02;;;;;;;35.22;14.48;;;;;;;2.68;86.79;97014.47;5068406;28;20048;-75
2021/12/20 09:21:29;;;;;;;34.85;15.00;;;;;;;2.72;86.93;97004.84;5068356;28;20093;-75
2021/12/20 09:23:56;;;;;;;35.25;16.83;;;;;;;2.77;86.96;96999.50;5068510;28;20053;-75
2021/12/20 09:26:25;;;;;;;35.80;14.88;;;;;;;2.79;86.64;97004.63;5068111;28;20122;-75
2021/12/20 09:28:52;;;;;;;34.42;15.40;;;;;;;2.83;86.77;97006.56;5068199;28;20052;-75
2021/12/20 09:31:19;;;;;;;38.72;15.52;;;;;;;2.91;86.49;97007.16;5068184;28;20051;-76
2021/12/20 09:33:45;;;;;;;35.25;15.18;;;;;;;2.96;86.08;97007.22;5059927;28;20048;-75
2021/12/20 09:36:12;;;;;;;29.92;13.93;;;;;;;2.96;86.24;97005.34;5048345;28;20080;-75
2021/12/20 09:38:38;;;;;;;31.20;14.73;;;;;;;3.01;86.53;97012.66;5048068;28;20040;-75
2021/12/20 09:41:59;;;;;;;34.88;15.40;;;;;;;3.06;86.36;97010.03;5062950;28;20053;-75
2021/12/20 09:44:07;;;;;;;28.92;13.85;;;;;;;3.08;85.62;97007.88;5067467;28;20044;-75
2021/12/20 09:46:33;;;;;;;34.90;14.85;;;;;;;3.10;85.47;97000.38;5068412;28;20051;-75
2021/12/20 09:49:00;;;;;;;32.95;15.07;;;;;;;3.12;85.63;97006.31;5067742;28;20063;-75
2021/12/20 09:51:27;;;;;;;32.20;14.45;;;;;;;3.12;84.89;97004.44;5068050;28;20389;-75
2021/12/20 09:53:55;;;;;;;34.42;14.23;;;;;;;3.11;85.12;97007.38;5068098;28;20048;-75
2021/12/20 09:56:24;;;;;;;37.00;14.32;;;;;;;3.12;85.25;97017.06;5067383;28;20139;-75
2021/12/20 09:58:52;;;;;;;39.78;16.00;;;;;;;3.13;85.21;97013.31;5067550;28;20121;-75
2021/12/20 10:01:22;;;;;;;31.10;14.52;;;;;;;3.18;85.26;97007.97;5067754;28;20052;-75
2021/12/20 10:03:50;;;;;;;33.38;15.57;;;;;;;3.22;84.99;97000.22;5067952;28;20505;-75
2021/12/20 10:06:16;;;;;;;32.72;14.35;;;;;;;3.26;85.40;97004.84;5067667;28;20052;-75
2021/12/20 10:08:50;;;;;;;32.42;13.98;;;;;;;3.33;84.90;97000.06;5067406;28;20090;-75
2021/12/20 10:11:19;;;;;;;31.30;14.32;;;;;;;3.42;84.88;96999.59;5064764;28;20064;-75
2021/12/20 10:13:46;;;;;;;35.67;15.48;;;;;;;3.48;84.57;96999.38;5067859;28;20064;-76
2021/12/20 10:16:15;;;;;;;39.53;15.65;;;;;;;3.74;85.06;96999.56;5067300;28;20055;-75
2021/12/20 10:18:43;;;;;;;31.40;13.15;;;;;;;4.02;83.70;97006.50;5067357;28;20044;-76
2021/12/20 10:21:10;;;;;;;28.23;12.98;;;;;;;4.21;82.66;97010.38;5067398;28;20159;-75
2021/12/20 10:23:40;;;;;;;29.40;13.88;;;;;;;4.43;82.51;97000.25;5067656;28;20511;-76
2021/12/20 10:26:13;;;;;;;29.30;13.68;;;;;;;4.53;80.39;97002.19;5066507;28;20507;-75
2021/12/20 10:28:39;;;;;;;30.35;13.82;;;;;;;4.64;80.58;96995.75;5067258;28;20071;-75
2021/12/20 10:31:08;;;;;;;28.88;12.18;;;;;;;4.83;81.20;97001.50;5067054;28;20056;-76
2021/12/20 10:33:34;;;;;;;23.88;12.00;;;;;;;4.89;78.92;96995.03;5067500;28;20070;-75
2021/12/20 10:36:05;;;;;;;22.15;11.38;;;;;;;4.88;78.29;96998.00;5067443;28;20040;-75
2021/12/20 10:38:37;;;;;;;25.27;13.43;;;;;;;4.86;76.82;96990.19;5067157;28;20036;-75
2021/12/20 10:41:06;;;;;;;23.10;12.27;;;;;;;4.89;77.12;96983.44;5063997;28;20139;-75
2021/12/20 10:43:36;;;;;;;24.52;11.65;;;;;;;4.95;77.18;96985.06;5067774;28;20064;-75
2021/12/20 10:46:11;;;;;;;22.10;11.27;;;;;;;4.83;76.29;96990.69;5067135;28;20053;-76
2021/12/20 10:48:37;;;;;;;21.58;10.75;;;;;;;4.69;75.99;96994.97;5067293;28;20049;-75
2021/12/20 10:51:06;;;;;;;24.10;12.02;;;;;;;4.61;76.71;96976.59;5067019;28;20060;-75
2021/12/20 10:53:33;;;;;;;23.65;10.45;;;;;;;4.42;77.07;96987.84;5067315;28;20672;-76
2021/12/20 10:56:02;;;;;;;20.85;10.48;;;;;;;4.30;76.54;96989.97;5067333;28;20418;-75
2021/12/20 10:58:35;;;;;;;25.55;10.50;;;;;;;4.16;77.34;96992.31;5066796;28;20882;-75
2021/12/20 11:01:17;;;;;;;21.33;10.05;;;;;;;4.04;77.61;96993.59;5067112;28;20127;-75
2021/12/20 11:03:54;;;;;;;29.13;11.38;;;;;;;3.91;77.16;96990.28;5067342;28;20068;-75
2021/12/20 11:06:36;;;;;;;17.15;8.77;;;;;;;3.79;77.50;96991.53;5066647;28;20053;-75
2021/12/20 11:09:09;;;;;;;17.63;8.73;;;;;;;3.62;78.14;96986.28;5066736;28;20127;-75
2021/12/20 11:11:39;;;;;;;21.58;10.48;;;;;;;3.50;78.22;96988.34;5064369;28;20415;-75
2021/12/20 11:14:08;;;;;;;22.08;9.13;;;;;;;3.49;79.28;96986.72;5066902;28;20067;-75
2021/12/20 11:16:37;;;;;;;21.00;9.88;;;;;;;3.75;80.05;96993.91;5067152;28;20083;-76
2021/12/20 11:19:21;;;;;;;20.27;9.10;;;;;;;4.07;80.29;96993.03;5066070;28;20048;-75
2021/12/20 11:21:55;;;;;;;15.93;8.25;;;;;;;4.42;78.86;96982.44;5067111;28;20051;-75
2021/12/20 11:24:24;;;;;;;20.48;8.30;;;;;;;4.74;78.11;96975.28;5066394;28;20071;-75
2021/12/20 11:26:52;;;;;;;16.00;7.30;;;;;;;5.04;75.13;96971.88;5067063;28;20059;-75
2021/12/20 11:29:20;;;;;;;16.27;7.03;;;;;;;5.25;72.62;96981.59;5066445;28;20516;-75
2021/12/20 11:31:47;;;;;;;15.93;6.32;;;;;;;5.30;69.94;96984.31;5067249;28;20052;-75
2021/12/20 11:34:14;;;;;;;14.52;5.95;;;;;;;5.34;69.75;96980.00;5066343;28;20496;-75
2021/12/20 11:36:40;;;;;;;11.77;5.20;;;;;;;5.44;68.80;96985.41;5068511;28;20056;-75
2021/12/20 11:39:10;;;;;;;8.63;4.72;;;;;;;5.47;65.18;96979.47;5069912;28;20036;-76